Buoy 43536

sailwx.info

Track history (hours):
 
Tides and Currents Weather Stations Pressure Air Temp Water Temp Dewpoint Dewpoint Depression Visibility Wind Speed Wind Dir Waves Ship Positions

Drifting buoy 43536

Last reported at 2017-Nov-18 00:00 UTC. Time now 2017-Nov-18 01:11 UTC.
Position N 17°55' W 152°20'.

Water temperature 26.5 ° C

Date/timePositionNaut miles runAvg speedWind from/ knotsBaromVisibWave heightAir tempDewpointWater temp
2017-Nov-18 00:00N 17°55' W 152°20'0 0.0 26.5
2017-Nov-17 19:00N 17°55' W 152°20'1 0.6 26.4
2017-Nov-17 18:00N 17°55' W 152°20'0 0.0 26.4
2017-Nov-17 17:00N 17°55' W 152°20'1 0.6 26.4
2017-Nov-17 16:00N 17°56' W 152°20'1 1.1 26.4
2017-Nov-17 15:00N 17°56' W 152°19'1 0.6 26.4
2017-Nov-17 14:00N 17°56' W 152°18'2 0.3 26.4
2017-Nov-17 07:00N 17°55' W 152°16'0 0.0 26.5
2017-Nov-17 06:00N 17°55' W 152°16'0 0.0 26.5
2017-Nov-17 05:00N 17°55' W 152°16'1 0.6 26.4
2017-Nov-17 04:00N 17°55' W 152°16'0 0.0 26.5
2017-Nov-17 03:00N 17°55' W 152°16'3 2.6 26.5
2017-Nov-17 02:00N 17°54' W 152°13'0 0.0 26.5
2017-Nov-17 01:00N 17°54' W 152°13'0 0.0 26.5
2017-Nov-17 00:00N 17°54' W 152°13'2 0.6 26.5
2017-Nov-16 20:00N 17°53' W 152°11'1 0.6 26.4
2017-Nov-16 19:00N 17°53' W 152°10'1 0.8 26.4
2017-Nov-16 18:00N 17°54' W 152°10'1 0.8 26.4
2017-Nov-16 17:00N 17°53' W 152°09'2 0.9 26.4
2017-Nov-16 15:00N 17°53' W 152°07'0 0.0 26.4
2017-Nov-16 14:00N 17°53' W 152°07'3 2.9 26.4
2017-Nov-16 13:00N 17°53' W 152°04'1 0.1 26.4
2017-Nov-16 07:00N 17°53' W 152°04'1 0.6 26.4
2017-Nov-16 05:00N 17°53' W 152°02'1 0.8 26.5
2017-Nov-16 04:00N 17°53' W 152°03'1 1.1 26.5
2017-Nov-16 03:00N 17°53' W 152°02'1 0.6 26.5
2017-Nov-16 02:00N 17°53' W 152°01'0 0.0 26.5
2017-Nov-16 00:00N 17°53' W 152°01'3 0.6 26.6
2017-Nov-15 19:00N 17°54' W 151°58'1 0.6 26.6
2017-Nov-15 18:00N 17°54' W 151°58'0 0.0 26.6
2017-Nov-15 17:00N 17°54' W 151°58'0 0.0 26.6
2017-Nov-15 16:00N 17°54' W 151°58'0 0.0 26.6
2017-Nov-15 15:00N 17°54' W 151°58'1 1.3 26.6
2017-Nov-15 14:00N 17°55' W 151°56'0 0.0 26.6
2017-Nov-15 13:00N 17°55' W 151°56'1 0.8 26.6
2017-Nov-15 12:00N 17°54' W 151°56'0 0.0 26.6
2017-Nov-15 08:00N 17°54' W 151°56'0 0.0 26.7
2017-Nov-15 07:00N 17°54' W 151°56'1 1.1 26.7
2017-Nov-15 06:00N 17°54' W 151°55'1 0.6 26.7
2017-Nov-15 05:00N 17°54' W 151°54'1 1.1 26.7
2017-Nov-15 04:00N 17°54' W 151°53'0 0.0 26.7
2017-Nov-15 03:00N 17°54' W 151°53'0 0.0 26.7
2017-Nov-15 02:00N 17°54' W 151°53'1 0.6 26.8
2017-Nov-15 01:00N 17°54' W 151°52'0 0.0 26.8
2017-Nov-15 00:00N 17°54' W 151°52'3 0.6 26.8
2017-Nov-14 20:00N 17°55' W 151°50'0 0.0 26.7
2017-Nov-14 19:00N 17°55' W 151°50'1 0.6 26.6
2017-Nov-14 18:00N 17°55' W 151°49'1 0.4 26.6
2017-Nov-14 16:00N 17°56' W 151°49'1 0.8 26.6
2017-Nov-14 15:00N 17°56' W 151°49'0 0.0 26.6
2017-Nov-14 13:00N 17°56' W 151°49'3 0.7 26.6
2017-Nov-14 08:00N 17°57' W 151°46'0 0.0 26.6
2017-Nov-14 07:00N 17°57' W 151°46'0 0.0 26.7
2017-Nov-14 06:00N 17°57' W 151°46'1 0.8 26.7
2017-Nov-14 05:00N 17°58' W 151°45'0 0.0 26.7
2017-Nov-14 04:00N 17°58' W 151°45'1 0.8 26.7
2017-Nov-14 03:00N 17°58' W 151°44'1 0.8 26.8
2017-Nov-14 02:00N 17°59' W 151°44'0 0.0 26.8
2017-Nov-14 01:00N 17°59' W 151°44'2 2.5 26.8
2017-Nov-14 00:00N 18°01' W 151°42'0 0.0 26.8
2017-Nov-13 21:00N 18°01' W 151°42'0 0.0 26.7
2017-Nov-13 20:00N 18°01' W 151°42'0 0.0 26.7
2017-Nov-13 19:00N 18°01' W 151°42'1 0.3 26.6
2017-Nov-13 17:00N 18°01' W 151°41'0 0.0 26.6
2017-Nov-13 16:00N 18°01' W 151°41'0 0.0 26.6
2017-Nov-13 15:00N 18°01' W 151°41'0 0.0 26.6
2017-Nov-13 14:00N 18°01' W 151°41'0 0.0 26.6
2017-Nov-13 13:00N 18°01' W 151°41'3 0.5 26.6
2017-Nov-13 07:00N 18°01' W 151°38'1 0.6 26.6
2017-Nov-13 06:00N 18°01' W 151°38'1 1.3 26.6
2017-Nov-13 05:00N 18°02' W 151°37'0 0.0 26.6
2017-Nov-13 04:00N 18°02' W 151°37'0 0.0 26.7
2017-Nov-13 03:00N 18°02' W 151°37'1 1.3 26.7
2017-Nov-13 02:00N 18°02' W 151°35'0 0.0 26.7
2017-Nov-13 01:00N 18°02' W 151°35'0 0.0 26.7
2017-Nov-13 00:00N 18°02' W 151°35'4 0.7 26.7
2017-Nov-12 19:00N 18°05' W 151°32'1 0.3 26.6
2017-Nov-12 17:00N 18°05' W 151°32'1 0.8 26.6
2017-Nov-12 16:00N 18°05' W 151°31'0 0.0 26.6
2017-Nov-12 15:00N 18°05' W 151°31'0 0.0 26.6
2017-Nov-12 14:00N 18°05' W 151°31'0 0.0 26.6
2017-Nov-12 13:00N 18°05' W 151°31'3 2.9 26.6
2017-Nov-12 12:00N 18°05' W 151°28'0 0.0 26.6
2017-Nov-12 11:00N 18°05' W 151°28'0 0.0 26.6
2017-Nov-12 07:00N 18°05' W 151°28'0 0.0 26.6
2017-Nov-12 06:00N 18°05' W 151°28'1 0.6 26.6
2017-Nov-12 05:00N 18°05' W 151°28'0 0.0 26.6
2017-Nov-12 04:00N 18°05' W 151°28'2 1.8 26.6
2017-Nov-12 03:00N 18°05' W 151°26'0 0.0 26.6
2017-Nov-12 01:00N 18°05' W 151°26'0 0.0 26.7
2017-Nov-12 00:00N 18°05' W 151°26'3 0.9 26.7
2017-Nov-11 20:00N 18°05' W 151°22'1 1.3 26.6
2017-Nov-11 19:00N 18°05' W 151°21'0 0.0 26.6
2017-Nov-11 18:00N 18°05' W 151°21'0 0.0 26.6
2017-Nov-11 17:00N 18°05' W 151°21'0 0.0 26.6
2017-Nov-11 16:00N 18°05' W 151°21'1 1.1 26.6
2017-Nov-11 15:00N 18°05' W 151°20'0 0.0 26.6
2017-Nov-11 14:00N 18°05' W 151°20'4 0.6 26.6
2017-Nov-11 07:00N 18°05' W 151°16'0 0.0 26.6
2017-Nov-11 06:00N 18°05' W 151°16'1 1.3 26.6
2017-Nov-11 05:00N 18°04' W 151°15'1 0.6 26.7
2017-Nov-11 04:00N 18°04' W 151°14'0 0.0 26.7
2017-Nov-11 03:00N 18°04' W 151°14'2 0.9 26.7
2017-Nov-11 01:00N 18°03' W 151°13'2 2.4 26.8
2017-Nov-11 00:00N 18°02' W 151°10'0 0.0 26.8
2017-Nov-10 23:00N 18°02' W 151°10'1 0.2 26.8
2017-Nov-10 20:00N 18°03' W 151°10'1 0.8 26.6
2017-Nov-10 19:00N 18°02' W 151°10'1 0.6 26.6
2017-Nov-10 18:00N 18°02' W 151°09'0 0.0 26.6
2017-Nov-10 17:00N 18°02' W 151°09'1 0.6 26.6
2017-Nov-10 16:00N 18°02' W 151°09'0 0.0 26.6
2017-Nov-10 15:00N 18°02' W 151°09'0 0.0 26.6
2017-Nov-10 14:00N 18°02' W 151°09'1 0.8 26.6
2017-Nov-10 13:00N 18°01' W 151°08'0 0.0 26.6
2017-Nov-10 12:00N 18°01' W 151°08'2 0.5 26.6
2017-Nov-10 08:00N 18°00' W 151°07'1 0.8 26.6
2017-Nov-10 07:00N 17°59' W 151°06'1 1.3 26.6
2017-Nov-10 06:00N 17°59' W 151°05'0 0.0 26.6
2017-Nov-10 05:00N 17°59' W 151°05'1 0.6 26.6
2017-Nov-10 04:00N 17°58' W 151°05'0 0.0 26.6
2017-Nov-10 03:00N 17°58' W 151°05'1 1.1 26.7
2017-Nov-10 02:00N 17°58' W 151°04'0 0.0 26.7
2017-Nov-10 01:00N 17°58' W 151°04'3 0.8 26.7
2017-Nov-09 21:00N 17°56' W 151°01'1 0.6 26.7
2017-Nov-09 20:00N 17°56' W 151°00'1 0.8 26.7
2017-Nov-09 19:00N 17°56' W 150°59'1 0.4 26.6
2017-Nov-09 17:00N 17°55' W 150°59'1 1.3 26.6
2017-Nov-09 16:00N 17°55' W 150°58'1 0.6 26.6
2017-Nov-09 15:00N 17°54' W 150°58'0 0.0 26.6
2017-Nov-09 14:00N 17°54' W 150°58'3 3.4 26.7
2017-Nov-09 13:00N 17°52' W 150°55'0 0.0 26.7
2017-Nov-09 12:00N 17°52' W 150°55'0 0.0 26.6
2017-Nov-09 07:00N 17°52' W 150°55'0 0.0 26.7
2017-Nov-09 06:00N 17°52' W 150°55'1 0.8 26.7
2017-Nov-09 05:00N 17°52' W 150°54'0 0.0 26.7
2017-Nov-09 04:00N 17°52' W 150°54'2 1.7 26.7
2017-Nov-09 03:00N 17°50' W 150°53'0 0.0 26.7
2017-Nov-09 02:00N 17°50' W 150°53'1 0.6 26.8
2017-Nov-09 01:00N 17°50' W 150°53'1 0.6 26.8
2017-Nov-09 00:00N 17°49' W 150°53'0 0.0 26.8
2017-Nov-08 23:00N 17°49' W 150°53'2 0.6 26.8
2017-Nov-08 19:00N 17°47' W 150°51'2 0.8 26.7
2017-Nov-08 17:00N 17°46' W 150°50'1 0.8 26.7
2017-Nov-08 16:00N 17°46' W 150°49'1 0.6 26.7
2017-Nov-08 15:00N 17°46' W 150°49'1 1.2 26.7
2017-Nov-08 14:00N 17°44' W 150°49'0 0.0 26.7
2017-Nov-08 13:00N 17°44' W 150°49'4 4.0 26.7
2017-Nov-08 12:00N 17°41' W 150°47'0 0.0 26.7
2017-Nov-08 07:00N 17°41' W 150°47'1 1.3 26.8
2017-Nov-08 06:00N 17°40' W 150°46'0 0.0 26.8
2017-Nov-08 05:00N 17°40' W 150°46'1 0.6 26.8
2017-Nov-08 04:00N 17°40' W 150°45'0 0.0 26.8
2017-Nov-08 03:00N 17°40' W 150°45'1 0.6 26.9
2017-Nov-08 02:00N 17°40' W 150°44'0 0.0 26.9
2017-Nov-08 01:00N 17°40' W 150°44'1 0.6 26.9
2017-Nov-08 00:00N 17°40' W 150°44'   26.9
Track history (hours):
 
Tides and Currents Weather Stations Pressure Air Temp Water Temp Dewpoint Dewpoint Depression Visibility Wind Speed Wind Dir Waves Ship Positions

Drifting buoy 43536

Last reported at 2017-Nov-18 00:00 UTC. Time now 2017-Nov-18 01:11 UTC.
Position N 17°55' W 152°20'.

Water temperature 26.5 ° C

Date/timePositionNaut miles runAvg speedWind from/ knotsBaromVisibWave heightAir tempDewpointWater temp
2017-Nov-18 00:00N 17°55' W 152°20'0 0.0 26.5
2017-Nov-17 19:00N 17°55' W 152°20'1 0.6 26.4
2017-Nov-17 18:00N 17°55' W 152°20'0 0.0 26.4
2017-Nov-17 17:00N 17°55' W 152°20'1 0.6 26.4
2017-Nov-17 16:00N 17°56' W 152°20'1 1.1 26.4
2017-Nov-17 15:00N 17°56' W 152°19'1 0.6 26.4
2017-Nov-17 14:00N 17°56' W 152°18'2 0.3 26.4
2017-Nov-17 07:00N 17°55' W 152°16'0 0.0 26.5
2017-Nov-17 06:00N 17°55' W 152°16'0 0.0 26.5
2017-Nov-17 05:00N 17°55' W 152°16'1 0.6 26.4
2017-Nov-17 04:00N 17°55' W 152°16'0 0.0 26.5
2017-Nov-17 03:00N 17°55' W 152°16'3 2.6 26.5
2017-Nov-17 02:00N 17°54' W 152°13'0 0.0 26.5
2017-Nov-17 01:00N 17°54' W 152°13'0 0.0 26.5
2017-Nov-17 00:00N 17°54' W 152°13'2 0.6 26.5
2017-Nov-16 20:00N 17°53' W 152°11'1 0.6 26.4
2017-Nov-16 19:00N 17°53' W 152°10'1 0.8 26.4
2017-Nov-16 18:00N 17°54' W 152°10'1 0.8 26.4
2017-Nov-16 17:00N 17°53' W 152°09'2 0.9 26.4
2017-Nov-16 15:00N 17°53' W 152°07'0 0.0 26.4
2017-Nov-16 14:00N 17°53' W 152°07'3 2.9 26.4
2017-Nov-16 13:00N 17°53' W 152°04'1 0.1 26.4
2017-Nov-16 07:00N 17°53' W 152°04'1 0.6 26.4
2017-Nov-16 05:00N 17°53' W 152°02'1 0.8 26.5
2017-Nov-16 04:00N 17°53' W 152°03'1 1.1 26.5
2017-Nov-16 03:00N 17°53' W 152°02'1 0.6 26.5
2017-Nov-16 02:00N 17°53' W 152°01'0 0.0 26.5
2017-Nov-16 00:00N 17°53' W 152°01'3 0.6 26.6
2017-Nov-15 19:00N 17°54' W 151°58'1 0.6 26.6
2017-Nov-15 18:00N 17°54' W 151°58'0 0.0 26.6
2017-Nov-15 17:00N 17°54' W 151°58'0 0.0 26.6
2017-Nov-15 16:00N 17°54' W 151°58'0 0.0 26.6
2017-Nov-15 15:00N 17°54' W 151°58'1 1.3 26.6
2017-Nov-15 14:00N 17°55' W 151°56'0 0.0 26.6
2017-Nov-15 13:00N 17°55' W 151°56'1 0.8 26.6
2017-Nov-15 12:00N 17°54' W 151°56'0 0.0 26.6
2017-Nov-15 08:00N 17°54' W 151°56'0 0.0 26.7
2017-Nov-15 07:00N 17°54' W 151°56'1 1.1 26.7
2017-Nov-15 06:00N 17°54' W 151°55'1 0.6 26.7
2017-Nov-15 05:00N 17°54' W 151°54'1 1.1 26.7
2017-Nov-15 04:00N 17°54' W 151°53'0 0.0 26.7
2017-Nov-15 03:00N 17°54' W 151°53'0 0.0 26.7
2017-Nov-15 02:00N 17°54' W 151°53'1 0.6 26.8
2017-Nov-15 01:00N 17°54' W 151°52'0 0.0 26.8
2017-Nov-15 00:00N 17°54' W 151°52'3 0.6 26.8
2017-Nov-14 20:00N 17°55' W 151°50'0 0.0 26.7
2017-Nov-14 19:00N 17°55' W 151°50'1 0.6 26.6
2017-Nov-14 18:00N 17°55' W 151°49'1 0.4 26.6
2017-Nov-14 16:00N 17°56' W 151°49'1 0.8 26.6
2017-Nov-14 15:00N 17°56' W 151°49'0 0.0 26.6
2017-Nov-14 13:00N 17°56' W 151°49'3 0.7 26.6
2017-Nov-14 08:00N 17°57' W 151°46'0 0.0 26.6
2017-Nov-14 07:00N 17°57' W 151°46'0 0.0 26.7
2017-Nov-14 06:00N 17°57' W 151°46'1 0.8 26.7
2017-Nov-14 05:00N 17°58' W 151°45'0 0.0 26.7
2017-Nov-14 04:00N 17°58' W 151°45'1 0.8 26.7
2017-Nov-14 03:00N 17°58' W 151°44'1 0.8 26.8
2017-Nov-14 02:00N 17°59' W 151°44'0 0.0 26.8
2017-Nov-14 01:00N 17°59' W 151°44'2 2.5 26.8
2017-Nov-14 00:00N 18°01' W 151°42'0 0.0 26.8
2017-Nov-13 21:00N 18°01' W 151°42'0 0.0 26.7
2017-Nov-13 20:00N 18°01' W 151°42'0 0.0 26.7
2017-Nov-13 19:00N 18°01' W 151°42'1 0.3 26.6
2017-Nov-13 17:00N 18°01' W 151°41'0 0.0 26.6
2017-Nov-13 16:00N 18°01' W 151°41'0 0.0 26.6
2017-Nov-13 15:00N 18°01' W 151°41'0 0.0 26.6
2017-Nov-13 14:00N 18°01' W 151°41'0 0.0 26.6
2017-Nov-13 13:00N 18°01' W 151°41'3 0.5 26.6
2017-Nov-13 07:00N 18°01' W 151°38'1 0.6 26.6
2017-Nov-13 06:00N 18°01' W 151°38'1 1.3 26.6
2017-Nov-13 05:00N 18°02' W 151°37'0 0.0 26.6
2017-Nov-13 04:00N 18°02' W 151°37'0 0.0 26.7
2017-Nov-13 03:00N 18°02' W 151°37'1 1.3 26.7
2017-Nov-13 02:00N 18°02' W 151°35'0 0.0 26.7
2017-Nov-13 01:00N 18°02' W 151°35'0 0.0 26.7
2017-Nov-13 00:00N 18°02' W 151°35'4 0.7 26.7
2017-Nov-12 19:00N 18°05' W 151°32'1 0.3 26.6
2017-Nov-12 17:00N 18°05' W 151°32'1 0.8 26.6
2017-Nov-12 16:00N 18°05' W 151°31'0 0.0 26.6
2017-Nov-12 15:00N 18°05' W 151°31'0 0.0 26.6
2017-Nov-12 14:00N 18°05' W 151°31'0 0.0 26.6
2017-Nov-12 13:00N 18°05' W 151°31'3 2.9 26.6
2017-Nov-12 12:00N 18°05' W 151°28'0 0.0 26.6
2017-Nov-12 11:00N 18°05' W 151°28'0 0.0 26.6
2017-Nov-12 07:00N 18°05' W 151°28'0 0.0 26.6
2017-Nov-12 06:00N 18°05' W 151°28'1 0.6 26.6
2017-Nov-12 05:00N 18°05' W 151°28'0 0.0 26.6
2017-Nov-12 04:00N 18°05' W 151°28'2 1.8 26.6
2017-Nov-12 03:00N 18°05' W 151°26'0 0.0 26.6
2017-Nov-12 01:00N 18°05' W 151°26'0 0.0 26.7
2017-Nov-12 00:00N 18°05' W 151°26'3 0.9 26.7
2017-Nov-11 20:00N 18°05' W 151°22'1 1.3 26.6
2017-Nov-11 19:00N 18°05' W 151°21'0 0.0 26.6
2017-Nov-11 18:00N 18°05' W 151°21'0 0.0 26.6
2017-Nov-11 17:00N 18°05' W 151°21'0 0.0 26.6
2017-Nov-11 16:00N 18°05' W 151°21'1 1.1 26.6
2017-Nov-11 15:00N 18°05' W 151°20'0 0.0 26.6
2017-Nov-11 14:00N 18°05' W 151°20'4 0.6 26.6
2017-Nov-11 07:00N 18°05' W 151°16'0 0.0 26.6
2017-Nov-11 06:00N 18°05' W 151°16'1 1.3 26.6
2017-Nov-11 05:00N 18°04' W 151°15'1 0.6 26.7
2017-Nov-11 04:00N 18°04' W 151°14'0 0.0 26.7
2017-Nov-11 03:00N 18°04' W 151°14'2 0.9 26.7
2017-Nov-11 01:00N 18°03' W 151°13'2 2.4 26.8
2017-Nov-11 00:00N 18°02' W 151°10'0 0.0 26.8
2017-Nov-10 23:00N 18°02' W 151°10'1 0.2 26.8
2017-Nov-10 20:00N 18°03' W 151°10'1 0.8 26.6
2017-Nov-10 19:00N 18°02' W 151°10'1 0.6 26.6
2017-Nov-10 18:00N 18°02' W 151°09'0 0.0 26.6
2017-Nov-10 17:00N 18°02' W 151°09'1 0.6 26.6
2017-Nov-10 16:00N 18°02' W 151°09'0 0.0 26.6
2017-Nov-10 15:00N 18°02' W 151°09'0 0.0 26.6
2017-Nov-10 14:00N 18°02' W 151°09'1 0.8 26.6
2017-Nov-10 13:00N 18°01' W 151°08'0 0.0 26.6
2017-Nov-10 12:00N 18°01' W 151°08'2 0.5 26.6
2017-Nov-10 08:00N 18°00' W 151°07'1 0.8 26.6
2017-Nov-10 07:00N 17°59' W 151°06'1 1.3 26.6
2017-Nov-10 06:00N 17°59' W 151°05'0 0.0 26.6
2017-Nov-10 05:00N 17°59' W 151°05'1 0.6 26.6
2017-Nov-10 04:00N 17°58' W 151°05'0 0.0 26.6
2017-Nov-10 03:00N 17°58' W 151°05'1 1.1 26.7
2017-Nov-10 02:00N 17°58' W 151°04'0 0.0 26.7
2017-Nov-10 01:00N 17°58' W 151°04'3 0.8 26.7
2017-Nov-09 21:00N 17°56' W 151°01'1 0.6 26.7
2017-Nov-09 20:00N 17°56' W 151°00'1 0.8 26.7
2017-Nov-09 19:00N 17°56' W 150°59'1 0.4 26.6
2017-Nov-09 17:00N 17°55' W 150°59'1 1.3 26.6
2017-Nov-09 16:00N 17°55' W 150°58'1 0.6 26.6
2017-Nov-09 15:00N 17°54' W 150°58'0 0.0 26.6
2017-Nov-09 14:00N 17°54' W 150°58'3 3.4 26.7
2017-Nov-09 13:00N 17°52' W 150°55'0 0.0 26.7
2017-Nov-09 12:00N 17°52' W 150°55'0 0.0 26.6
2017-Nov-09 07:00N 17°52' W 150°55'0 0.0 26.7
2017-Nov-09 06:00N 17°52' W 150°55'1 0.8 26.7
2017-Nov-09 05:00N 17°52' W 150°54'0 0.0 26.7
2017-Nov-09 04:00N 17°52' W 150°54'2 1.7 26.7
2017-Nov-09 03:00N 17°50' W 150°53'0 0.0 26.7
2017-Nov-09 02:00N 17°50' W 150°53'1 0.6 26.8
2017-Nov-09 01:00N 17°50' W 150°53'1 0.6 26.8
2017-Nov-09 00:00N 17°49' W 150°53'0 0.0 26.8
2017-Nov-08 23:00N 17°49' W 150°53'2 0.6 26.8
2017-Nov-08 19:00N 17°47' W 150°51'2 0.8 26.7
2017-Nov-08 17:00N 17°46' W 150°50'1 0.8 26.7
2017-Nov-08 16:00N 17°46' W 150°49'1 0.6 26.7
2017-Nov-08 15:00N 17°46' W 150°49'1 1.2 26.7
2017-Nov-08 14:00N 17°44' W 150°49'0 0.0 26.7
2017-Nov-08 13:00N 17°44' W 150°49'4 4.0 26.7
2017-Nov-08 12:00N 17°41' W 150°47'0 0.0 26.7
2017-Nov-08 07:00N 17°41' W 150°47'1 1.3 26.8
2017-Nov-08 06:00N 17°40' W 150°46'0 0.0 26.8
2017-Nov-08 05:00N 17°40' W 150°46'1 0.6 26.8
2017-Nov-08 04:00N 17°40' W 150°45'0 0.0 26.8
2017-Nov-08 03:00N 17°40' W 150°45'1 0.6 26.9
2017-Nov-08 02:00N 17°40' W 150°44'0 0.0 26.9
2017-Nov-08 01:00N 17°40' W 150°44'1 0.6 26.9
2017-Nov-08 00:00N 17°40' W 150°44'   26.9

Dump ship's entire track history